Tucson International Airport
KTUS : now visible

Airfield :











YOU CAN JOIN US ON...

 
LOGIN :

Register | Disclaimer

   EN    FR    IT 

 









Legend :    VFR   Marginal VFR   IFR   Intensive IFR   Very Intensive IFR
Visi :
Ceiling :
>= 8 km
>= 3000ft
5 to 8 km
1000 to 3000 ft
1500m to 5 km
500 to 1000 ft
800 to 1500m
200 to 500 ft
< 800m
< 200 ft
Symbols :   Thunderstorms  Fog  Heavy snow  Heavy precipitations  Wind > 20 kt






- Airport Elevation : 2643 ft
- IATA code : TUS


KTUS - Tucson International

CURRENT METAR :
  • 181953Z 28008G15KT 260V320 10SM CLR 29/00 A2989 RMK AO2 SLP077 T02940000

EXPIRED METARs :
  • 181853Z 00000KT 10SM CLR 29/01 A2991 RMK AO2 SLP085 T02890011
  • 181831Z 27009G16KT 10SM CLR 29/02 A2992 RMK AO2 T02890022
  • 181753Z VRB06KT 10SM CLR 28/03 A2993 RMK AO2 SLP090 T02780033 10283 20167 58007
  • 181653Z 00000KT 10SM CLR 26/04 A2994 RMK AO2 SLP096 T02610039

TAF KTUS
Valid from the 18 at 18:00 until the 19 at 18:00 UTC


181729Z 1818/1918 26009KT P6SM FEW140
FM181900 32013G21KT P6SM SCT120
TEMPO 1821/1824 BKN100
FM190300 24008KT P6SM FEW100 SCT200
FM190700 14007KT P6SM SKC
KZAB FIR / North America



MET'MAP, your aeronautical weather chart ! - Copyright ORBIFLY December 2007 - Disclaimer

ORBIFLY MET'MAP TEAM :

Programming & Development : Alexandra Zaïnal
Concept & original design : Baudouin d'Aumeries
Assistance for programming : Marc-Olivier Méhu
Technical & hardware support : Manuel Goepfert

Contact : metmap@orbifly.com




SOURCES & CREDITS :

   NOAA       Earth
Advisory